Terminal Aerodrome Forecast
Issued by NWS

Home | Current Version | Previous Version | Text Only | Print | Product List | Glossary On
Versions: 1 2 3 4 5 6 7 8 9 10 11 12 13 14 15 16 17 18 19
000
FTUS43 KAPX 180520
TAFPLN
TAF
KPLN 180520Z 1806/1906 26015KT P6SM FEW200 WS020/27040KT
     FM181300 26007KT P6SM VCSH BKN025
     FM181800 25008KT P6SM VCSH OVC015
     FM190000 24005KT P6SM BKN015=

USA.gov is the U.S. government's official web portal to all federal, state and local government web resources and services.